Time;durP1;ratioP1;P1;durP2;ratioP2;P2;SDS_P1;SDS_P2;PMS_P1;PMS_P2;Temp;Humidity;BMP_temperature;BMP_pressure;BME280_temperature;BME280_humidity;BME280_pressure;Samples;Min_cycle;Max_cycle;Signal;HPM_P1;HPM_P2
2021/03/07 00:01:14;;;;;;;95.97;74.75;;;20.10;40.40;;;;;;4808901;54;21004;-24
2021/03/07 00:06:15;;;;;;;96.75;74.25;;;20.20;40.50;;;;;;4834312;54;21039;-23
2021/03/07 00:11:15;;;;;;;99.97;76.30;;;20.10;40.40;;;;;;4829315;54;21130;-24
2021/03/07 00:16:16;;;;;;;92.90;72.37;;;20.10;40.40;;;;;;4845436;54;21031;-22
2021/03/07 00:21:17;;;;;;;94.47;72.53;;;20.10;40.30;;;;;;4794504;54;21027;-23
2021/03/07 00:26:18;;;;;;;97.10;72.78;;;20.10;40.90;;;;;;4815482;54;20995;-23
2021/03/07 00:31:19;;;;;;;96.25;75.37;;;20.10;40.30;;;;;;4798719;54;21007;-26
2021/03/07 00:36:20;;;;;;;92.47;70.85;;;20.10;40.30;;;;;;4794320;54;21694;-24
2021/03/07 00:41:21;;;;;;;96.40;72.90;;;20.10;40.20;;;;;;4794659;54;21126;-25
2021/03/07 00:46:22;;;;;;;96.93;73.35;;;20.10;40.20;;;;;;4881425;54;21618;-23
2021/03/07 00:51:23;;;;;;;93.55;72.72;;;20.10;40.20;;;;;;4801660;54;21453;-22
2021/03/07 00:56:23;;;;;;;95.35;73.95;;;20.10;40.10;;;;;;4796224;54;20979;-22
2021/03/07 01:01:25;;;;;;;91.78;70.87;;;20.10;40.10;;;;;;4798387;54;21135;-23
2021/03/07 01:06:26;;;;;;;94.70;73.50;;;20.10;40.10;;;;;;4813658;54;21051;-23
2021/03/07 01:11:27;;;;;;;91.60;69.45;;;20.10;40.10;;;;;;4816062;54;21042;-22
2021/03/07 01:16:28;;;;;;;89.60;71.35;;;20.10;40.10;;;;;;4803950;54;21508;-23
2021/03/07 01:21:30;;;;;;;91.68;70.40;;;20.10;40.10;;;;;;4794825;58;21004;-24
2021/03/07 01:26:30;;;;;;;92.82;69.37;;;20.10;40.00;;;;;;4794726;54;21545;-22
2021/03/07 01:31:33;;;;;;;88.30;68.80;;;20.10;40.00;;;;;;4800930;54;21063;-23
2021/03/07 01:36:33;;;;;;;87.10;67.85;;;20.10;39.90;;;;;;4795596;54;21083;-23
2021/03/07 01:41:34;;;;;;;92.62;69.82;;;20.10;40.00;;;;;;4794747;54;22121;-23
2021/03/07 01:46:35;;;;;;;87.10;68.43;;;20.10;39.90;;;;;;4823756;54;21069;-22
2021/03/07 01:51:36;;;;;;;86.30;67.32;;;20.10;39.90;;;;;;4794312;58;20980;-23
2021/03/07 01:56:38;;;;;;;88.05;69.20;;;20.10;39.90;;;;;;4819931;54;21453;-22
2021/03/07 02:01:41;;;;;;;89.47;68.53;;;20.10;39.90;;;;;;4811012;54;21697;-22
2021/03/07 02:06:42;;;;;;;86.05;67.55;;;20.10;39.80;;;;;;4794265;54;21052;-22
2021/03/07 02:11:43;;;;;;;87.18;65.70;;;20.10;39.80;;;;;;4817591;54;21015;-22
2021/03/07 02:16:45;;;;;;;89.57;66.55;;;20.10;39.80;;;;;;4819209;54;21005;-22
2021/03/07 02:21:50;;;;;;;85.60;66.28;;;20.00;39.70;;;;;;4799170;54;21066;-22
2021/03/07 02:26:52;;;;;;;82.97;63.83;;;20.10;39.70;;;;;;4833416;54;21031;-23
2021/03/07 02:32:00;;;;;;;80.87;63.58;;;20.10;40.30;;;;;;4799636;54;22241;-22
2021/03/07 02:37:03;;;;;;;82.72;62.47;;;20.00;39.60;;;;;;4803368;54;21011;-26
2021/03/07 02:42:09;;;;;;;81.22;64.47;;;20.10;39.70;;;;;;4822580;54;21091;-25
2021/03/07 02:47:13;;;;;;;81.80;62.95;;;20.00;39.50;;;;;;4800457;54;21027;-24
2021/03/07 02:52:17;;;;;;;80.25;63.20;;;20.10;39.60;;;;;;4846240;54;20999;-24
2021/03/07 02:57:27;;;;;;;81.70;61.20;;;20.10;39.50;;;;;;4826238;54;21464;-25
2021/03/07 03:02:30;;;;;;;78.60;60.30;;;20.00;39.50;;;;;;4810118;54;21031;-23
2021/03/07 03:07:33;;;;;;;77.65;61.42;;;20.00;39.40;;;;;;4816101;54;21023;-23
2021/03/07 03:12:37;;;;;;;74.60;57.83;;;20.00;39.40;;;;;;4829959;54;21027;-25
2021/03/07 03:17:40;;;;;;;79.18;60.05;;;20.00;39.40;;;;;;4833413;54;21023;-24
2021/03/07 03:22:42;;;;;;;75.45;58.33;;;20.00;39.40;;;;;;4803567;54;21071;-24
2021/03/07 03:27:43;;;;;;;75.60;58.15;;;20.00;39.40;;;;;;4801859;54;21010;-22
2021/03/07 03:32:45;;;;;;;74.40;57.95;;;20.00;39.40;;;;;;4799252;54;21011;-22
2021/03/07 03:37:48;;;;;;;75.35;58.67;;;20.00;39.30;;;;;;4802136;54;20984;-23
2021/03/07 03:43:04;;;;;;;73.72;58.08;;;20.00;39.40;;;;;;4802950;54;21026;-24
2021/03/07 03:48:08;;;;;;;72.78;58.00;;;20.00;39.30;;;;;;4799762;54;21011;-23
2021/03/07 03:53:14;;;;;;;69.90;54.50;;;20.00;39.20;;;;;;4872743;54;21110;-22
2021/03/07 03:58:21;;;;;;;73.40;55.05;;;20.00;39.20;;;;;;4814770;54;21011;-22
2021/03/07 04:03:24;;;;;;;66.43;52.67;;;20.00;39.80;;;;;;4794042;58;21008;-22
2021/03/07 04:08:25;;;;;;;67.15;53.95;;;20.00;39.20;;;;;;4839469;54;21014;-27
2021/03/07 04:13:27;;;;;;;66.22;52.58;;;20.00;39.10;;;;;;4799100;54;21489;-24
2021/03/07 04:18:29;;;;;;;66.28;51.95;;;20.00;39.10;;;;;;4850212;54;21552;-24
2021/03/07 04:23:29;;;;;;;69.10;53.30;;;20.00;39.10;;;;;;4834680;54;21007;-23
2021/03/07 04:28:30;;;;;;;67.45;51.83;;;20.00;39.00;;;;;;4797292;54;21592;-24
2021/03/07 04:33:32;;;;;;;65.22;51.78;;;20.00;39.00;;;;;;4807719;54;20999;-26
2021/03/07 04:38:33;;;;;;;65.43;51.50;;;20.00;39.00;;;;;;4794160;58;21007;-22
2021/03/07 04:43:50;;;;;;;63.17;51.00;;;20.00;38.90;;;;;;4796338;54;21524;-24
2021/03/07 04:48:52;;;;;;;60.78;49.30;;;20.00;38.90;;;;;;4798824;54;21012;-24
2021/03/07 04:53:54;;;;;;;61.05;47.50;;;20.00;38.90;;;;;;4838513;54;21007;-24
2021/03/07 04:58:55;;;;;;;61.47;49.17;;;20.00;38.90;;;;;;4794157;58;21590;-24
2021/03/07 05:03:56;;;;;;;63.95;49.72;;;20.00;38.80;;;;;;4803346;54;21148;-25
2021/03/07 05:08:56;;;;;;;61.10;47.95;;;19.90;38.80;;;;;;4810140;54;21633;-24
2021/03/07 05:13:57;;;;;;;59.38;47.22;;;19.90;38.70;;;;;;4793449;58;21019;-23
2021/03/07 05:18:58;;;;;;;59.08;47.40;;;19.90;39.00;;;;;;4808705;54;21573;-24
2021/03/07 05:24:00;;;;;;;59.40;47.45;;;19.90;38.60;;;;;;4794562;58;21035;-23
2021/03/07 05:29:02;;;;;;;56.83;45.90;;;20.00;38.70;;;;;;4808849;54;21524;-24
2021/03/07 05:34:02;;;;;;;60.63;45.97;;;20.00;38.60;;;;;;4803493;54;21043;-23
2021/03/07 05:39:04;;;;;;;57.85;45.42;;;19.90;38.60;;;;;;4795764;54;21015;-22
2021/03/07 05:44:08;;;;;;;54.58;43.85;;;19.90;38.50;;;;;;4850755;54;21079;-23
2021/03/07 05:49:09;;;;;;;56.10;44.00;;;19.90;38.60;;;;;;4869491;54;20979;-22
2021/03/07 05:54:11;;;;;;;55.38;43.83;;;19.90;38.50;;;;;;4815561;54;21143;-23
2021/03/07 05:59:12;;;;;;;52.90;42.95;;;19.90;38.50;;;;;;4809935;54;22058;-24
2021/03/07 06:04:13;;;;;;;52.15;42.03;;;19.90;38.40;;;;;;4841008;54;21003;-24
2021/03/07 06:09:27;;;;;;;52.70;42.50;;;19.90;38.40;;;;;;4848099;54;21514;-24
2021/03/07 06:14:34;;;;;;;52.10;43.03;;;19.90;38.40;;;;;;4847843;54;21026;-25
2021/03/07 06:20:03;;;;;;;53.58;43.05;;;19.90;38.30;;;;;;4837387;54;21094;-24
2021/03/07 06:25:22;;;;;;;50.72;42.53;;;19.90;39.00;;;;;;4829359;54;21473;-24
2021/03/07 06:30:29;;;;;;;51.55;41.78;;;19.90;38.30;;;;;;4814730;54;21030;-23
2021/03/07 06:35:33;;;;;;;50.40;41.42;;;19.90;38.30;;;;;;4829333;54;21476;-23
2021/03/07 06:40:43;;;;;;;50.58;40.28;;;19.90;38.30;;;;;;4826183;54;20991;-23
2021/03/07 06:45:44;;;;;;;51.20;40.80;;;19.90;38.20;;;;;;4824340;54;21015;-23
2021/03/07 06:50:53;;;;;;;49.15;39.35;;;19.90;38.20;;;;;;4836058;54;21034;-23
2021/03/07 06:55:58;;;;;;;51.78;40.92;;;19.90;38.20;;;;;;4868554;54;21059;-24
2021/03/07 07:00:59;;;;;;;50.78;40.67;;;19.90;38.20;;;;;;4807749;54;21003;-29
2021/03/07 07:06:00;;;;;;;50.65;41.53;;;19.90;38.10;;;;;;4794424;54;21030;-23
2021/03/07 07:11:03;;;;;;;48.40;39.90;;;19.90;38.00;;;;;;4813007;54;21522;-25
2021/03/07 07:16:06;;;;;;;50.67;40.10;;;19.90;38.00;;;;;;4805694;54;21541;-23
2021/03/07 07:21:10;;;;;;;49.95;39.90;;;19.90;37.80;;;;;;4891314;54;21086;-23
2021/03/07 07:26:10;;;;;;;50.90;41.05;;;19.90;37.80;;;;;;4807422;54;21045;-22
2021/03/07 07:31:22;;;;;;;47.92;40.12;;;19.90;37.80;;;;;;4861293;54;21989;-24
2021/03/07 07:36:46;;;;;;;49.97;40.42;;;19.90;37.70;;;;;;4816942;54;21537;-24
2021/03/07 07:41:47;;;;;;;51.42;40.92;;;19.90;37.70;;;;;;4831734;54;21473;-23
2021/03/07 07:46:57;;;;;;;53.87;42.65;;;19.90;37.60;;;;;;4840051;54;21003;-25
2021/03/07 07:51:58;;;;;;;53.40;41.80;;;19.90;37.60;;;;;;4799980;54;21480;-25
2021/03/07 07:56:59;;;;;;;52.38;39.70;;;19.90;37.60;;;;;;4809515;54;21015;-22
2021/03/07 08:02:00;;;;;;;53.03;43.10;;;19.90;37.50;;;;;;4818790;54;20995;-23
2021/03/07 08:07:02;;;;;;;55.03;43.58;;;19.90;37.50;;;;;;4798901;54;21079;-22
2021/03/07 08:12:40;;;;;;;55.38;43.63;;;19.90;37.50;;;;;;4816634;54;21003;-25
2021/03/07 08:18:04;;;;;;;53.33;43.38;;;19.90;37.60;;;;;;4815359;54;21612;-22
2021/03/07 08:23:19;;;;;;;54.97;44.75;;;19.90;37.50;;;;;;4808496;54;21003;-22
2021/03/07 08:28:53;;;;;;;57.88;45.83;;;19.90;37.50;;;;;;4807844;54;20983;-24
2021/03/07 08:33:54;;;;;;;55.67;45.28;;;19.90;37.60;;;;;;4806584;54;21015;-24
2021/03/07 08:39:19;;;;;;;52.53;42.35;;;19.90;37.50;;;;;;4798647;54;21067;-22
2021/03/07 08:44:20;;;;;;;56.72;45.30;;;19.90;37.50;;;;;;4825753;54;21022;-23
2021/03/07 08:49:27;;;;;;;54.88;44.33;;;19.90;37.50;;;;;;4862254;54;21027;-23
2021/03/07 08:54:31;;;;;;;53.20;44.07;;;19.90;37.50;;;;;;4796844;54;21082;-22
2021/03/07 08:59:34;;;;;;;55.67;44.55;;;19.90;37.50;;;;;;4794241;58;22216;-22
2021/03/07 09:04:37;;;;;;;57.53;46.28;;;19.90;37.50;;;;;;4794237;58;21099;-23
2021/03/07 09:09:43;;;;;;;55.20;43.35;;;19.90;37.50;;;;;;4795055;58;21541;-23
2021/03/07 09:14:44;;;;;;;58.70;45.83;;;19.90;37.50;;;;;;4793748;58;21019;-27
2021/03/07 09:19:45;;;;;;;57.62;45.40;;;19.90;37.50;;;;;;4814813;54;21086;-24
2021/03/07 09:25:09;;;;;;;54.40;44.10;;;19.90;37.50;;;;;;4805312;54;21007;-24
2021/03/07 09:30:19;;;;;;;57.92;46.88;;;19.90;37.40;;;;;;4809385;54;21473;-25
2021/03/07 09:35:34;;;;;;;58.75;47.05;;;19.90;37.60;;;;;;4843042;54;21091;-22
2021/03/07 09:40:41;;;;;;;60.08;46.25;;;19.90;37.60;;;;;;4805630;54;22057;-24
2021/03/07 09:45:50;;;;;;;55.87;45.57;;;19.90;37.60;;;;;;4816444;54;21087;-23
2021/03/07 09:50:51;;;;;;;60.05;47.40;;;19.90;37.70;;;;;;4817759;54;21450;-24
2021/03/07 09:55:52;;;;;;;59.60;48.50;;;19.90;37.70;;;;;;4816072;54;20999;-22
2021/03/07 10:00:53;;;;;;;59.85;46.58;;;19.90;37.70;;;;;;4794414;58;21560;-24
2021/03/07 10:06:14;;;;;;;65.18;49.85;;;19.90;37.80;;;;;;4816668;54;21549;-28
2021/03/07 10:11:23;;;;;;;63.58;50.88;;;19.90;37.80;;;;;;4813229;54;21083;-23
2021/03/07 10:16:30;;;;;;;66.78;50.83;;;19.90;37.80;;;;;;4804787;54;21079;-23
2021/03/07 10:21:32;;;;;;;64.75;50.92;;;19.90;37.80;;;;;;4821922;54;20975;-25
2021/03/07 10:26:34;;;;;;;62.90;51.28;;;19.90;37.90;;;;;;4824520;54;21066;-25
2021/03/07 10:31:35;;;;;;;64.62;50.60;;;19.90;37.90;;;;;;4811444;54;21011;-25
2021/03/07 10:36:42;;;;;;;66.60;52.97;;;19.90;37.90;;;;;;4795923;54;21577;-23
2021/03/07 10:41:43;;;;;;;63.60;51.22;;;19.90;38.00;;;;;;4794333;58;21555;-24
2021/03/07 10:46:44;;;;;;;66.70;53.22;;;19.90;38.00;;;;;;4798515;54;21083;-22
2021/03/07 10:51:44;;;;;;;66.35;52.65;;;19.90;38.00;;;;;;4802254;54;21007;-26
2021/03/07 10:56:46;;;;;;;68.00;54.17;;;19.90;38.10;;;;;;4800947;54;21557;-23
2021/03/07 11:01:47;;;;;;;73.12;54.20;;;19.90;38.10;;;;;;4796463;54;21473;-24
2021/03/07 11:06:48;;;;;;;70.80;56.10;;;19.90;38.10;;;;;;4799074;54;21485;-28
2021/03/07 11:11:49;;;;;;;70.35;54.97;;;19.90;38.20;;;;;;4840519;54;21019;-23
2021/03/07 11:16:50;;;;;;;75.65;57.90;;;19.90;38.20;;;;;;4802550;54;21007;-23
2021/03/07 11:21:52;;;;;;;70.35;55.72;;;19.90;38.20;;;;;;4810195;54;21560;-23
2021/03/07 11:26:54;;;;;;;72.85;55.58;;;19.90;38.30;;;;;;4806271;54;21572;-24
2021/03/07 11:31:55;;;;;;;72.10;57.05;;;20.00;38.40;;;;;;4827828;54;21441;-24
2021/03/07 11:36:56;;;;;;;75.95;58.17;;;19.90;38.30;;;;;;4798002;54;21006;-24
2021/03/07 11:41:57;;;;;;;74.25;57.17;;;19.90;38.40;;;;;;4822918;54;21055;-24
2021/03/07 11:46:58;;;;;;;76.53;58.78;;;19.90;38.40;;;;;;4807819;54;20999;-24
2021/03/07 11:51:59;;;;;;;76.45;58.90;;;19.90;38.40;;;;;;4856401;54;20999;-23
2021/03/07 11:57:00;;;;;;;78.57;61.17;;;19.90;38.50;;;;;;4807382;54;21015;-23
2021/03/07 12:02:01;;;;;;;78.97;60.30;;;20.00;38.50;;;;;;4802531;54;21575;-22
2021/03/07 12:07:02;;;;;;;82.90;62.22;;;20.00;38.50;;;;;;4816719;54;21077;-22
2021/03/07 12:12:05;;;;;;;79.30;62.03;;;20.00;38.60;;;;;;4801159;54;21465;-25
2021/03/07 12:17:05;;;;;;;79.35;62.62;;;20.00;38.60;;;;;;4829163;54;20999;-24
2021/03/07 12:22:07;;;;;;;80.18;63.05;;;19.90;38.60;;;;;;4810737;54;21086;-22
2021/03/07 12:27:09;;;;;;;81.00;64.03;;;20.00;38.60;;;;;;4794326;58;21539;-25
2021/03/07 12:32:10;;;;;;;80.50;63.85;;;20.00;38.70;;;;;;4798323;54;22410;-25
2021/03/07 12:37:11;;;;;;;83.75;66.90;;;19.90;38.60;;;;;;4797282;54;21076;-23
2021/03/07 12:42:12;;;;;;;83.55;64.45;;;20.00;38.70;;;;;;4794206;58;21000;-24
2021/03/07 12:47:13;;;;;;;84.25;66.40;;;19.90;38.70;;;;;;4814912;54;20999;-23
2021/03/07 12:52:14;;;;;;;80.80;64.85;;;20.00;38.80;;;;;;4825388;54;21066;-26
2021/03/07 12:57:15;;;;;;;84.95;66.18;;;20.00;38.80;;;;;;4817521;54;21019;-24
2021/03/07 13:02:15;;;;;;;87.03;66.37;;;20.00;38.80;;;;;;4793945;58;21019;-25
2021/03/07 13:07:16;;;;;;;90.07;67.87;;;20.00;38.90;;;;;;4799074;54;21118;-23
2021/03/07 13:12:17;;;;;;;90.65;68.25;;;20.00;38.90;;;;;;4794093;58;21007;-23
2021/03/07 13:17:18;;;;;;;91.12;70.93;;;20.00;38.90;;;;;;4804367;54;21548;-26
2021/03/07 13:22:19;;;;;;;90.93;69.80;;;20.00;38.90;;;;;;4792997;58;21019;-24
2021/03/07 13:27:20;;;;;;;85.70;68.68;;;20.00;39.00;;;;;;4792987;58;22086;-28
2021/03/07 13:32:21;;;;;;;89.53;70.22;;;20.00;38.50;;;;;;4794380;54;21449;-27
2021/03/07 13:37:21;;;;;;;89.43;70.68;;;19.90;38.90;;;;;;4796000;54;21051;-22
2021/03/07 13:42:22;;;;;;;90.78;69.97;;;20.00;39.60;;;;;;4833669;54;21567;-22
2021/03/07 13:47:23;;;;;;;94.55;72.45;;;20.00;38.90;;;;;;4812322;54;21120;-22
2021/03/07 13:52:24;;;;;;;92.93;74.68;;;20.00;38.90;;;;;;4793678;58;21011;-22
2021/03/07 13:57:25;;;;;;;91.00;71.50;;;20.00;39.00;;;;;;4793566;58;21050;-24
2021/03/07 14:02:26;;;;;;;94.22;72.68;;;20.00;39.00;;;;;;4808644;54;21002;-23
2021/03/07 14:07:27;;;;;;;96.10;73.62;;;20.00;39.00;;;;;;4800003;54;21066;-25
2021/03/07 14:12:27;;;;;;;91.72;72.47;;;20.00;39.00;;;;;;4833323;54;21556;-25
2021/03/07 14:17:28;;;;;;;95.22;73.78;;;20.00;39.00;;;;;;4793262;55;21500;-24
2021/03/07 14:22:29;;;;;;;92.45;71.25;;;20.00;39.60;;;;;;4794132;54;21050;-24
2021/03/07 14:27:30;;;;;;;89.22;72.00;;;20.00;39.00;;;;;;4808610;54;21569;-23
2021/03/07 14:32:31;;;;;;;95.15;74.30;;;20.00;39.00;;;;;;4852363;54;21035;-26
2021/03/07 14:37:32;;;;;;;92.50;73.10;;;20.00;39.00;;;;;;4824960;54;21091;-23
2021/03/07 14:42:33;;;;;;;93.62;71.62;;;20.00;39.00;;;;;;4846475;54;21521;-25
2021/03/07 14:47:34;;;;;;;93.10;71.47;;;20.00;39.00;;;;;;4817123;54;21055;-23
2021/03/07 14:52:36;;;;;;;92.97;70.93;;;20.00;39.00;;;;;;4816528;54;21019;-23
2021/03/07 14:57:36;;;;;;;91.15;71.57;;;20.00;39.00;;;;;;4793486;55;21011;-23
2021/03/07 15:02:37;;;;;;;90.65;72.40;;;20.00;39.00;;;;;;4795513;58;21080;-23
2021/03/07 15:07:39;;;;;;;88.72;70.07;;;20.00;39.00;;;;;;4802402;54;21074;-23
2021/03/07 15:12:40;;;;;;;86.68;69.03;;;20.00;39.00;;;;;;4803975;54;21019;-23
2021/03/07 15:17:41;;;;;;;91.72;73.00;;;20.00;39.00;;;;;;4812322;54;20992;-24
2021/03/07 15:22:42;;;;;;;86.32;69.50;;;20.00;39.50;;;;;;4799249;54;21008;-24
2021/03/07 15:27:43;;;;;;;90.30;71.05;;;20.00;39.00;;;;;;4830881;54;21544;-23
2021/03/07 15:32:44;;;;;;;86.37;69.30;;;20.00;39.10;;;;;;4813708;54;21007;-23
2021/03/07 15:37:45;;;;;;;91.37;72.43;;;20.00;39.00;;;;;;4804134;54;21066;-26
2021/03/07 15:42:45;;;;;;;90.12;71.72;;;20.00;39.00;;;;;;4819579;54;22017;-23
2021/03/07 15:47:47;;;;;;;84.57;69.12;;;20.00;39.00;;;;;;4842521;54;21027;-24
2021/03/07 15:52:51;;;;;;;90.25;69.28;;;20.00;39.10;;;;;;4825283;54;21028;-23
2021/03/07 15:57:51;;;;;;;86.37;70.72;;;20.00;39.00;;;;;;4807648;54;21031;-23
2021/03/07 16:02:52;;;;;;;86.03;69.20;;;20.00;39.00;;;;;;4833604;54;21028;-23
2021/03/07 16:07:53;;;;;;;90.35;70.55;;;20.00;39.00;;;;;;4824849;54;20987;-23
2021/03/07 16:12:54;;;;;;;87.37;70.78;;;20.00;39.10;;;;;;4794863;58;21011;-23
2021/03/07 16:17:55;;;;;;;84.13;69.75;;;20.00;39.00;;;;;;4809039;54;20999;-22
2021/03/07 16:22:56;;;;;;;82.57;68.87;;;20.00;39.00;;;;;;4807524;54;20999;-23
2021/03/07 16:27:56;;;;;;;87.95;70.35;;;20.00;39.00;;;;;;4810081;54;21051;-23
2021/03/07 16:32:57;;;;;;;86.45;70.75;;;20.00;39.00;;;;;;4836361;54;21086;-22
2021/03/07 16:37:58;;;;;;;84.20;68.32;;;20.00;39.00;;;;;;4811452;54;21004;-21
2021/03/07 16:43:00;;;;;;;89.30;69.25;;;20.00;39.00;;;;;;4802235;54;21050;-22
2021/03/07 16:48:03;;;;;;;84.85;66.75;;;20.00;39.00;;;;;;4794809;58;21678;-22
2021/03/07 16:53:03;;;;;;;85.07;69.87;;;19.90;39.00;;;;;;4798419;54;21063;-21
2021/03/07 16:58:04;;;;;;;88.82;70.22;;;20.00;39.00;;;;;;4794054;55;21006;-23
2021/03/07 17:03:05;;;;;;;81.32;66.47;;;20.00;39.60;;;;;;4794236;58;21138;-23
2021/03/07 17:08:06;;;;;;;90.97;69.82;;;20.00;39.00;;;;;;4794726;58;21018;-23
2021/03/07 17:13:07;;;;;;;89.35;70.37;;;20.00;39.00;;;;;;4795075;54;21038;-23
2021/03/07 17:18:08;;;;;;;90.38;70.53;;;20.00;38.90;;;;;;4814895;54;20995;-24
2021/03/07 17:23:09;;;;;;;90.22;71.22;;;20.00;39.00;;;;;;4795570;55;20996;-24
2021/03/07 17:28:10;;;;;;;90.00;72.57;;;20.00;39.00;;;;;;4794883;55;21004;-23
2021/03/07 17:33:11;;;;;;;92.10;71.57;;;20.00;39.20;;;;;;4828443;54;21019;-23
2021/03/07 17:38:12;;;;;;;94.90;71.07;;;20.00;38.90;;;;;;4795007;54;21019;-23
2021/03/07 17:43:13;;;;;;;90.97;72.10;;;20.00;38.90;;;;;;4802974;54;21545;-24
2021/03/07 17:48:14;;;;;;;102.18;76.87;;;20.00;38.80;;;;;;4808137;54;21344;-23
2021/03/07 17:53:15;;;;;;;94.82;75.05;;;20.00;38.80;;;;;;4832554;54;21027;-23
2021/03/07 17:58:16;;;;;;;94.72;74.18;;;20.00;38.90;;;;;;4797775;54;21070;-23
2021/03/07 18:03:17;;;;;;;96.45;77.05;;;20.00;38.80;;;;;;4795590;58;21505;-22
2021/03/07 18:08:20;;;;;;;97.30;77.28;;;20.00;38.80;;;;;;4830549;54;21064;-23
2021/03/07 18:13:21;;;;;;;98.32;78.35;;;20.00;38.80;;;;;;4794225;58;21007;-22
2021/03/07 18:18:22;;;;;;;99.25;77.82;;;20.00;38.70;;;;;;4803708;54;21035;-24
2021/03/07 18:23:23;;;;;;;96.40;76.55;;;20.00;38.70;;;;;;4800909;54;21465;-23
2021/03/07 18:28:24;;;;;;;102.32;79.05;;;20.00;38.70;;;;;;4831347;54;21090;-22
2021/03/07 18:33:25;;;;;;;101.32;81.95;;;20.00;38.70;;;;;;4794894;54;21019;-25
2021/03/07 18:38:26;;;;;;;104.22;79.22;;;19.90;38.60;;;;;;4803877;54;21086;-23
2021/03/07 18:43:27;;;;;;;103.53;82.18;;;19.90;38.60;;;;;;4800965;54;22372;-24
2021/03/07 18:48:28;;;;;;;104.95;80.38;;;19.90;38.60;;;;;;4803291;54;21079;-24
2021/03/07 18:53:29;;;;;;;103.50;80.12;;;19.90;38.60;;;;;;4799750;54;21011;-27
2021/03/07 18:58:30;;;;;;;110.85;83.45;;;20.00;38.60;;;;;;4804493;54;21067;-22
2021/03/07 19:03:30;;;;;;;110.00;84.10;;;20.00;38.60;;;;;;4901588;54;21604;-23
2021/03/07 19:08:31;;;;;;;108.70;85.68;;;19.90;38.50;;;;;;4804004;54;21011;-22
2021/03/07 19:13:32;;;;;;;110.78;86.25;;;20.00;38.60;;;;;;4796206;54;21007;-25
2021/03/07 19:18:33;;;;;;;110.07;84.53;;;20.00;38.50;;;;;;4795321;54;21555;-24
2021/03/07 19:23:34;;;;;;;107.60;83.72;;;19.90;38.50;;;;;;4808774;54;20995;-22
2021/03/07 19:28:35;;;;;;;110.93;85.12;;;19.90;38.50;;;;;;4814159;54;21092;-23
2021/03/07 19:33:37;;;;;;;110.45;87.50;;;19.90;38.40;;;;;;4797742;54;21051;-24
2021/03/07 19:38:38;;;;;;;108.32;84.85;;;19.90;38.40;;;;;;4805930;54;21481;-23
2021/03/07 19:43:38;;;;;;;111.85;87.90;;;19.90;38.40;;;;;;4820696;54;21039;-23
2021/03/07 19:48:39;;;;;;;114.72;89.62;;;19.90;38.40;;;;;;4830162;54;20991;-28
2021/03/07 19:53:40;;;;;;;113.55;86.93;;;19.90;38.40;;;;;;4804849;54;21003;-22
2021/03/07 19:58:41;;;;;;;114.65;89.47;;;19.90;38.30;;;;;;4794002;58;21484;-23
2021/03/07 20:03:42;;;;;;;114.50;90.18;;;19.90;38.30;;;;;;4793245;58;21051;-23
2021/03/07 20:08:43;;;;;;;116.55;89.87;;;19.90;38.30;;;;;;4811225;54;20995;-24
2021/03/07 20:13:44;;;;;;;113.12;87.82;;;20.00;38.30;;;;;;4805341;54;21099;-24
2021/03/07 20:18:45;;;;;;;115.75;89.35;;;19.90;38.30;;;;;;4805981;54;21472;-23
2021/03/07 20:23:46;;;;;;;118.65;90.15;;;19.90;38.20;;;;;;4796911;54;22151;-23
2021/03/07 20:28:50;;;;;;;115.10;90.22;;;19.90;38.30;;;;;;4797321;54;20987;-23
2021/03/07 20:33:51;;;;;;;117.45;89.28;;;19.90;38.10;;;;;;4817916;54;21035;-22
2021/03/07 20:38:52;;;;;;;116.03;89.65;;;19.90;38.20;;;;;;4802621;54;21055;-22
2021/03/07 20:43:53;;;;;;;118.18;91.30;;;19.90;38.20;;;;;;4793672;58;21779;-22
2021/03/07 20:48:54;;;;;;;123.95;92.90;;;19.90;38.10;;;;;;4817020;54;20995;-22
2021/03/07 20:53:55;;;;;;;118.40;90.97;;;19.90;38.10;;;;;;4794255;58;21520;-23
2021/03/07 20:58:56;;;;;;;117.80;90.28;;;19.90;38.10;;;;;;4803971;54;21022;-22
2021/03/07 21:03:57;;;;;;;119.72;93.75;;;19.90;38.00;;;;;;4803520;54;21031;-23
2021/03/07 21:09:01;;;;;;;119.97;91.68;;;19.90;38.00;;;;;;4801340;54;21015;-22
2021/03/07 21:14:02;;;;;;;123.00;95.75;;;19.90;38.00;;;;;;4800214;54;21019;-23
2021/03/07 21:19:03;;;;;;;115.12;88.85;;;19.90;37.90;;;;;;4806087;54;20985;-22
2021/03/07 21:24:05;;;;;;;118.47;90.72;;;19.90;38.00;;;;;;4807660;54;21007;-26
2021/03/07 21:29:06;;;;;;;122.05;93.40;;;19.90;37.90;;;;;;4807745;54;20999;-23
2021/03/07 21:34:07;;;;;;;118.22;91.00;;;19.90;37.90;;;;;;4825962;54;21548;-23
2021/03/07 21:39:07;;;;;;;118.05;89.75;;;19.90;37.90;;;;;;4849297;54;21064;-22
2021/03/07 21:44:08;;;;;;;118.35;90.20;;;19.90;37.90;;;;;;4820881;54;21003;-25
2021/03/07 21:49:10;;;;;;;114.60;87.62;;;19.90;37.80;;;;;;4795344;58;21003;-21
2021/03/07 21:54:11;;;;;;;114.07;87.68;;;19.90;37.80;;;;;;4796412;54;21114;-24
2021/03/07 21:59:12;;;;;;;114.93;89.53;;;19.90;37.80;;;;;;4794510;55;21516;-23
2021/03/07 22:04:13;;;;;;;116.03;89.13;;;19.90;37.80;;;;;;4799459;54;21509;-22
2021/03/07 22:09:15;;;;;;;117.53;89.22;;;19.90;37.70;;;;;;4811501;54;21070;-23
2021/03/07 22:14:16;;;;;;;115.50;87.72;;;19.90;37.70;;;;;;4811088;54;21583;-24
2021/03/07 22:19:16;;;;;;;114.70;89.43;;;19.90;37.70;;;;;;4795026;58;20995;-22
2021/03/07 22:24:17;;;;;;;118.60;91.70;;;19.90;37.70;;;;;;4875483;54;20995;-25
2021/03/07 22:29:18;;;;;;;113.55;86.57;;;19.90;37.70;;;;;;4801399;54;21072;-26
2021/03/07 22:34:19;;;;;;;117.70;89.75;;;19.90;37.70;;;;;;4802521;54;21512;-28
2021/03/07 22:39:20;;;;;;;120.43;91.10;;;19.90;37.60;;;;;;4804106;54;21015;-25
2021/03/07 22:44:21;;;;;;;116.12;89.25;;;19.90;37.60;;;;;;4841300;54;21548;-23
2021/03/07 22:49:21;;;;;;;115.35;88.25;;;19.90;37.60;;;;;;4803177;54;21051;-25
2021/03/07 22:54:22;;;;;;;117.40;88.78;;;19.90;37.60;;;;;;4812530;54;21540;-22
2021/03/07 22:59:23;;;;;;;115.85;87.15;;;19.90;37.60;;;;;;4802086;54;21098;-22
2021/03/07 23:04:24;;;;;;;113.03;87.43;;;19.90;37.50;;;;;;4803571;54;21103;-24
2021/03/07 23:09:25;;;;;;;120.57;92.18;;;19.90;37.50;;;;;;4820978;54;21067;-24
2021/03/07 23:14:26;;;;;;;118.32;90.57;;;19.90;37.50;;;;;;4835480;54;21011;-24
2021/03/07 23:19:28;;;;;;;120.45;91.57;;;19.90;37.60;;;;;;4808332;54;21485;-21
2021/03/07 23:24:29;;;;;;;117.43;90.03;;;19.90;37.40;;;;;;4803540;54;21070;-24
2021/03/07 23:29:30;;;;;;;117.03;91.05;;;19.90;37.40;;;;;;4820214;54;21108;-23
2021/03/07 23:34:31;;;;;;;120.62;91.47;;;19.90;37.40;;;;;;4833446;54;21556;-22
2021/03/07 23:39:32;;;;;;;124.53;92.32;;;19.90;37.30;;;;;;4794221;58;21031;-23
2021/03/07 23:44:32;;;;;;;115.82;90.38;;;19.90;37.90;;;;;;4817336;54;21102;-22
2021/03/07 23:49:33;;;;;;;118.43;90.07;;;19.90;37.30;;;;;;4809265;54;21059;-23
2021/03/07 23:54:34;;;;;;;117.85;90.05;;;19.90;37.30;;;;;;4847635;54;21037;-25
2021/03/07 23:59:35;;;;;;;121.60;90.85;;;19.90;37.20;;;;;;4843257;54;21138;-22
